createdAt,value
2017-05-27T00:00:06.676Z,0
2017-05-27T00:01:07.310Z,0
2017-05-27T00:02:07.930Z,0
2017-05-27T00:03:08.529Z,0
2017-05-27T00:04:09.145Z,0
2017-05-27T00:05:09.762Z,0
2017-05-27T00:06:10.367Z,0
2017-05-27T00:07:10.966Z,0
2017-05-27T00:08:11.567Z,0
2017-05-27T00:09:12.178Z,0
2017-05-27T00:10:12.782Z,0
2017-05-27T00:11:13.385Z,0
2017-05-27T00:12:13.984Z,0
2017-05-27T00:13:14.597Z,0
2017-05-27T00:14:15.194Z,0
2017-05-27T00:15:15.808Z,0
2017-05-27T00:16:16.410Z,0
2017-05-27T00:17:17.026Z,0
2017-05-27T00:18:17.638Z,0
2017-05-27T00:19:18.255Z,0
2017-05-27T00:20:18.851Z,0
2017-05-27T00:21:19.454Z,0
2017-05-27T00:22:20.074Z,0
2017-05-27T00:23:20.689Z,0
2017-05-27T00:24:21.305Z,0
2017-05-27T00:25:21.923Z,0
2017-05-27T00:26:22.537Z,0
2017-05-27T00:27:23.148Z,0
2017-05-27T00:28:23.746Z,0
2017-05-27T00:29:24.347Z,0
2017-05-27T00:30:24.958Z,0
2017-05-27T00:31:25.563Z,0
2017-05-27T00:32:26.171Z,0
2017-05-27T00:33:26.784Z,0
2017-05-27T00:34:27.388Z,0
2017-05-27T00:35:28.016Z,0
2017-05-27T00:36:28.612Z,0
2017-05-27T00:37:29.227Z,0
2017-05-27T00:38:29.826Z,0
2017-05-27T00:39:30.439Z,0
2017-05-27T00:40:31.040Z,0
2017-05-27T00:41:31.641Z,0
2017-05-27T00:42:32.253Z,0
2017-05-27T00:43:32.865Z,0
2017-05-27T00:44:33.466Z,0
2017-05-27T00:45:34.068Z,0
2017-05-27T00:46:34.682Z,0
2017-05-27T00:47:35.292Z,0
2017-05-27T00:48:35.910Z,0
2017-05-27T00:49:36.525Z,0
2017-05-27T00:50:37.131Z,0
2017-05-27T00:51:37.730Z,0
2017-05-27T00:52:38.347Z,0
2017-05-27T00:53:38.946Z,0
2017-05-27T00:54:39.558Z,0
2017-05-27T00:55:40.171Z,0
2017-05-27T00:56:40.781Z,0
2017-05-27T00:57:41.404Z,0
2017-05-27T00:58:42.009Z,0
2017-05-27T00:59:42.614Z,0
2017-05-27T01:00:43.230Z,0
2017-05-27T01:01:43.828Z,0
2017-05-27T01:02:44.438Z,0
2017-05-27T01:03:45.038Z,0
2017-05-27T01:04:45.651Z,0
2017-05-27T01:05:46.265Z,0
2017-05-27T01:06:46.876Z,0
2017-05-27T01:07:47.480Z,0
2017-05-27T01:08:48.096Z,0
2017-05-27T01:09:48.699Z,0
2017-05-27T01:10:49.306Z,0
2017-05-27T01:11:49.968Z,0
2017-05-27T01:12:50.585Z,0
2017-05-27T01:13:51.202Z,0
2017-05-27T01:14:51.817Z,0
2017-05-27T01:15:52.413Z,0
2017-05-27T01:16:53.015Z,0
2017-05-27T01:17:53.630Z,0
2017-05-27T01:18:54.244Z,0
2017-05-27T01:19:54.855Z,0
2017-05-27T01:20:55.466Z,0
2017-05-27T01:21:56.066Z,0
2017-05-27T01:22:56.674Z,0
2017-05-27T01:23:57.276Z,0
2017-05-27T01:24:57.891Z,0
2017-05-27T01:25:58.506Z,0
2017-05-27T01:26:59.117Z,0
2017-05-27T01:27:59.728Z,0
2017-05-27T01:29:00.335Z,0
2017-05-27T01:30:00.944Z,0
2017-05-27T01:31:01.556Z,0
2017-05-27T01:32:02.173Z,0
2017-05-27T01:33:02.772Z,0
2017-05-27T01:34:03.380Z,0
2017-05-27T01:35:03.979Z,0
2017-05-27T01:36:04.582Z,0
2017-05-27T01:37:05.178Z,0
2017-05-27T01:38:05.783Z,0
2017-05-27T01:39:06.385Z,0
2017-05-27T01:40:07.033Z,0
2017-05-27T01:41:07.631Z,0
2017-05-27T01:42:08.236Z,0
2017-05-27T01:43:08.846Z,0
2017-05-27T01:44:09.446Z,0
2017-05-27T01:45:10.054Z,0
2017-05-27T01:46:10.667Z,0
2017-05-27T01:47:11.281Z,0
2017-05-27T01:48:11.885Z,0
2017-05-27T01:49:12.497Z,0
2017-05-27T01:50:13.096Z,0
2017-05-27T01:51:13.706Z,0
2017-05-27T01:52:14.313Z,0
2017-05-27T01:53:14.923Z,0
2017-05-27T01:54:15.522Z,0
2017-05-27T01:55:16.120Z,0
2017-05-27T01:56:16.721Z,0
2017-05-27T01:57:17.316Z,0
2017-05-27T01:58:17.915Z,0
2017-05-27T01:59:18.527Z,0
2017-05-27T02:00:19.131Z,0
2017-05-27T02:01:19.729Z,0
2017-05-27T02:02:20.330Z,0
2017-05-27T02:03:20.939Z,0
2017-05-27T02:04:21.548Z,0
2017-05-27T02:05:22.158Z,0
2017-05-27T02:06:22.769Z,0
2017-05-27T02:07:23.385Z,0
2017-05-27T02:08:24.001Z,0
2017-05-27T02:09:24.618Z,0
2017-05-27T02:10:25.227Z,0
2017-05-27T02:11:25.952Z,0
2017-05-27T02:12:26.517Z,0
2017-05-27T02:13:27.130Z,0
2017-05-27T02:14:27.730Z,0
2017-05-27T02:15:28.341Z,0
2017-05-27T02:16:28.950Z,0
2017-05-27T02:17:29.560Z,0
2017-05-27T02:18:30.175Z,0
2017-05-27T02:19:30.785Z,0
2017-05-27T02:20:31.398Z,0
2017-05-27T02:21:31.996Z,0
2017-05-27T02:22:32.595Z,0
2017-05-27T02:23:33.206Z,0
2017-05-27T02:24:33.808Z,0
2017-05-27T02:25:34.420Z,0
2017-05-27T02:26:35.026Z,0
2017-05-27T02:27:35.637Z,0
2017-05-27T02:28:36.245Z,0
2017-05-27T02:29:36.856Z,0
2017-05-27T02:30:37.462Z,0
2017-05-27T02:31:38.069Z,0
2017-05-27T02:32:38.668Z,0
2017-05-27T02:33:39.271Z,0
2017-05-27T02:34:39.868Z,0
2017-05-27T02:35:40.484Z,0
2017-05-27T02:36:41.095Z,0
2017-05-27T02:37:41.697Z,0
2017-05-27T02:38:42.316Z,0
2017-05-27T02:39:42.926Z,0
2017-05-27T02:40:43.537Z,0
2017-05-27T02:41:44.205Z,0
2017-05-27T02:42:44.821Z,0
2017-05-27T02:43:45.431Z,0
2017-05-27T02:44:46.040Z,0
2017-05-27T02:45:46.653Z,0
2017-05-27T02:46:47.264Z,0
2017-05-27T02:47:47.866Z,0
2017-05-27T02:48:48.467Z,0
2017-05-27T02:49:49.069Z,0
2017-05-27T02:50:49.685Z,0
2017-05-27T02:51:50.350Z,0
2017-05-27T02:52:50.960Z,0
2017-05-27T02:53:51.562Z,0
2017-05-27T02:54:52.173Z,0
2017-05-27T02:55:52.785Z,0
2017-05-27T02:56:53.436Z,0
2017-05-27T02:57:54.049Z,0
2017-05-27T02:58:54.655Z,0
2017-05-27T02:59:55.266Z,0
2017-05-27T03:00:55.882Z,0
2017-05-27T03:01:56.478Z,0
2017-05-27T03:02:57.082Z,0
2017-05-27T03:03:57.694Z,0
2017-05-27T03:04:58.307Z,0
2017-05-27T03:05:58.922Z,0
2017-05-27T03:06:59.579Z,0
2017-05-27T03:08:00.190Z,0
2017-05-27T03:09:00.791Z,0
2017-05-27T03:10:01.391Z,0
2017-05-27T03:11:01.993Z,0
2017-05-27T03:12:02.664Z,0
2017-05-27T03:13:03.273Z,0
2017-05-27T03:14:03.874Z,0
2017-05-27T03:15:04.479Z,0
2017-05-27T03:16:05.048Z,0
2017-05-27T03:17:05.604Z,0
2017-05-27T03:18:06.168Z,5
2017-05-27T03:19:06.732Z,5
2017-05-27T03:20:07.288Z,5
2017-05-27T03:21:07.851Z,5
2017-05-27T03:22:08.420Z,5
2017-05-27T03:23:08.975Z,5
2017-05-27T03:24:09.541Z,5
2017-05-27T03:25:10.096Z,5
2017-05-27T03:26:10.667Z,10
2017-05-27T03:27:11.230Z,10
2017-05-27T03:28:11.796Z,10
2017-05-27T03:29:12.360Z,10
2017-05-27T03:30:12.929Z,10
2017-05-27T03:31:13.484Z,15
2017-05-27T03:32:14.041Z,15
2017-05-27T03:33:14.600Z,15
2017-05-27T03:34:15.168Z,15
2017-05-27T03:35:15.740Z,15
2017-05-27T03:36:16.314Z,20
2017-05-27T03:37:16.883Z,20
2017-05-27T03:38:17.435Z,20
2017-05-27T03:39:18.004Z,25
2017-05-27T03:40:18.568Z,25
2017-05-27T03:41:19.124Z,25
2017-05-27T03:42:19.730Z,25
2017-05-27T03:43:20.332Z,30
2017-05-27T03:44:20.944Z,30
2017-05-27T03:45:21.556Z,30
2017-05-27T03:46:22.159Z,35
2017-05-27T03:47:22.763Z,35
2017-05-27T03:48:23.383Z,35
2017-05-27T03:49:24.000Z,40
2017-05-27T03:50:24.603Z,40
2017-05-27T03:51:25.215Z,40
2017-05-27T03:52:25.831Z,45
2017-05-27T03:53:26.446Z,45
2017-05-27T03:54:27.049Z,45
2017-05-27T03:55:27.651Z,50
2017-05-27T03:56:28.265Z,50
2017-05-27T03:57:28.885Z,50
2017-05-27T03:58:29.498Z,55
2017-05-27T03:59:30.112Z,55
2017-05-27T04:00:30.726Z,60
2017-05-27T04:01:31.341Z,60
2017-05-27T04:02:31.956Z,60
2017-05-27T04:03:32.575Z,65
2017-05-27T04:04:33.179Z,65
2017-05-27T04:05:33.794Z,65
2017-05-27T04:06:34.413Z,70
2017-05-27T04:07:35.021Z,70
2017-05-27T04:08:35.625Z,70
2017-05-27T04:09:36.234Z,75
2017-05-27T04:10:36.840Z,75
2017-05-27T04:11:37.440Z,75
2017-05-27T04:12:38.048Z,80
2017-05-27T04:13:38.648Z,80
2017-05-27T04:14:39.254Z,85
2017-05-27T04:15:39.858Z,85
2017-05-27T04:16:40.462Z,85
2017-05-27T04:17:41.127Z,90
2017-05-27T04:18:41.747Z,90
2017-05-27T04:19:42.363Z,90
2017-05-27T04:20:42.968Z,95
2017-05-27T04:21:43.591Z,95
2017-05-27T04:22:44.197Z,95
2017-05-27T04:23:44.813Z,100
2017-05-27T04:24:45.434Z,100
2017-05-27T04:25:46.087Z,100
2017-05-27T04:26:46.644Z,100
2017-05-27T04:27:47.250Z,100
2017-05-27T04:28:47.857Z,105
2017-05-27T04:29:48.482Z,105
2017-05-27T04:30:49.096Z,105
2017-05-27T04:31:49.699Z,110
2017-05-27T04:32:50.316Z,110
2017-05-27T04:33:50.922Z,110
2017-05-27T04:34:51.539Z,115
2017-05-27T04:35:52.156Z,115
2017-05-27T04:36:52.827Z,115
2017-05-27T04:37:53.432Z,120
2017-05-27T04:38:54.048Z,120
2017-05-27T04:39:54.667Z,120
2017-05-27T04:40:55.286Z,125
2017-05-27T04:41:55.901Z,125
2017-05-27T04:42:56.514Z,130
2017-05-27T04:43:57.131Z,130
2017-05-27T04:44:57.732Z,135
2017-05-27T04:45:58.339Z,135
2017-05-27T04:46:58.945Z,145
2017-05-27T04:47:59.560Z,190
2017-05-27T04:49:00.179Z,240
2017-05-27T04:50:00.793Z,260
2017-05-27T04:51:01.411Z,265
2017-05-27T04:52:02.019Z,270
2017-05-27T04:53:02.626Z,280
2017-05-27T04:54:03.246Z,285
2017-05-27T04:55:03.856Z,285
2017-05-27T04:56:04.476Z,235
2017-05-27T04:57:05.095Z,210
2017-05-27T04:58:05.708Z,250
2017-05-27T04:59:06.318Z,305
2017-05-27T05:00:06.938Z,320
2017-05-27T05:01:07.611Z,325
2017-05-27T05:02:08.224Z,335
2017-05-27T05:03:08.851Z,340
2017-05-27T05:04:09.468Z,350
2017-05-27T05:05:10.091Z,355
2017-05-27T05:06:10.704Z,355
2017-05-27T05:07:11.324Z,365
2017-05-27T05:08:11.955Z,375
2017-05-27T05:09:12.571Z,365
2017-05-27T05:10:13.189Z,315
2017-05-27T05:11:13.831Z,240
2017-05-27T05:12:14.444Z,195
2017-05-27T05:13:15.070Z,220
2017-05-27T05:14:15.701Z,305
2017-05-27T05:15:16.316Z,395
2017-05-27T05:16:16.934Z,410
2017-05-27T05:17:17.565Z,420
2017-05-27T05:18:18.183Z,420
2017-05-27T05:19:18.816Z,425
2017-05-27T05:20:19.430Z,435
2017-05-27T05:21:20.050Z,445
2017-05-27T05:22:20.680Z,450
2017-05-27T05:23:21.297Z,445
2017-05-27T05:24:21.925Z,375
2017-05-27T05:25:22.551Z,275
2017-05-27T05:26:23.180Z,235
2017-05-27T05:27:23.800Z,315
2017-05-27T05:28:24.420Z,435
2017-05-27T05:29:25.112Z,490
2017-05-27T05:30:25.766Z,500
2017-05-27T05:31:26.385Z,490
2017-05-27T05:32:27.001Z,515
2017-05-27T05:33:27.617Z,520
2017-05-27T05:34:28.295Z,530
2017-05-27T05:35:28.912Z,540
2017-05-27T05:36:29.551Z,550
2017-05-27T05:37:30.180Z,560
2017-05-27T05:38:30.817Z,570
2017-05-27T05:39:31.449Z,570
2017-05-27T05:40:32.080Z,580
2017-05-27T05:41:32.699Z,580
2017-05-27T05:42:33.329Z,590
2017-05-27T05:43:33.960Z,590
2017-05-27T05:44:34.595Z,595
2017-05-27T05:45:35.218Z,610
2017-05-27T05:46:35.839Z,610
2017-05-27T05:47:36.470Z,620
2017-05-27T05:48:37.090Z,625
2017-05-27T05:49:37.708Z,635
2017-05-27T05:50:38.327Z,640
2017-05-27T05:51:38.966Z,645
2017-05-27T05:52:39.644Z,655
2017-05-27T05:53:40.280Z,660
2017-05-27T05:54:40.912Z,665
2017-05-27T05:55:41.534Z,670
2017-05-27T05:56:42.171Z,680
2017-05-27T05:57:42.801Z,690
2017-05-27T05:58:43.420Z,695
2017-05-27T05:59:44.051Z,700
2017-05-27T06:00:44.670Z,705
2017-05-27T06:01:45.295Z,710
2017-05-27T06:02:45.921Z,720
2017-05-27T06:03:46.552Z,730
2017-05-27T06:04:47.174Z,735
2017-05-27T06:05:47.808Z,740
2017-05-27T06:06:48.424Z,750
2017-05-27T06:07:49.055Z,760
2017-05-27T06:08:49.677Z,765
2017-05-27T06:09:50.311Z,770
2017-05-27T06:10:50.940Z,780
2017-05-27T06:11:51.573Z,655
2017-05-27T06:12:52.205Z,450
2017-05-27T06:13:52.836Z,480
2017-05-27T06:14:53.470Z,705
2017-05-27T06:15:54.103Z,815
2017-05-27T06:16:54.727Z,825
2017-05-27T06:17:55.349Z,835
2017-05-27T06:18:55.981Z,840
2017-05-27T06:19:56.609Z,855
2017-05-27T06:20:57.232Z,855
2017-05-27T06:21:57.857Z,870
2017-05-27T06:22:58.488Z,880
2017-05-27T06:23:59.119Z,895
2017-05-27T06:24:59.742Z,895
2017-05-27T06:26:00.364Z,905
2017-05-27T06:27:00.999Z,920
2017-05-27T06:28:01.621Z,930
2017-05-27T06:29:02.244Z,935
2017-05-27T06:30:02.918Z,950
2017-05-27T06:31:03.553Z,955
2017-05-27T06:32:04.184Z,965
2017-05-27T06:33:04.802Z,975
2017-05-27T06:34:05.430Z,985
2017-05-27T06:35:06.066Z,995
2017-05-27T06:36:06.694Z,1005
2017-05-27T06:37:07.324Z,1025
2017-05-27T06:38:07.945Z,1040
2017-05-27T06:39:08.572Z,1045
2017-05-27T06:40:09.210Z,1060
2017-05-27T06:41:09.842Z,1075
2017-05-27T06:42:10.475Z,1075
2017-05-27T06:43:11.158Z,1095
2017-05-27T06:44:11.781Z,1100
2017-05-27T06:45:12.405Z,1125
2017-05-27T06:46:13.035Z,1135
2017-05-27T06:47:13.669Z,1135
2017-05-27T06:48:14.292Z,1150
2017-05-27T06:49:14.915Z,1165
2017-05-27T06:50:15.545Z,1175
2017-05-27T06:51:16.171Z,1200
2017-05-27T06:52:16.793Z,1230
2017-05-27T06:53:17.465Z,1255
2017-05-27T06:54:18.086Z,1260
2017-05-27T06:55:18.710Z,1260
2017-05-27T06:56:19.335Z,1285
2017-05-27T06:57:19.968Z,1270
2017-05-27T06:58:20.655Z,1265
2017-05-27T06:59:21.292Z,1295
2017-05-27T07:00:21.923Z,1310
2017-05-27T07:01:22.561Z,1335
2017-05-27T07:02:23.199Z,1355
2017-05-27T07:03:23.820Z,1370
2017-05-27T07:04:24.454Z,1400
2017-05-27T07:05:25.075Z,1395
2017-05-27T07:06:25.713Z,1415
2017-05-27T07:07:26.342Z,1430
2017-05-27T07:08:26.973Z,1455
2017-05-27T07:09:27.604Z,1440
2017-05-27T07:10:28.229Z,1450
2017-05-27T07:11:28.850Z,1460
2017-05-27T07:12:29.483Z,1455
2017-05-27T07:13:30.116Z,1465
2017-05-27T07:14:30.801Z,1450
2017-05-27T07:15:31.425Z,1455
2017-05-27T07:16:32.061Z,1480
2017-05-27T07:17:32.697Z,1470
2017-05-27T07:18:33.332Z,1485
2017-05-27T07:19:33.959Z,1505
2017-05-27T07:20:34.597Z,1500
2017-05-27T07:21:35.227Z,1510
2017-05-27T07:22:35.864Z,1505
2017-05-27T07:23:36.486Z,1510
2017-05-27T07:24:37.115Z,1500
2017-05-27T07:25:37.748Z,1510
2017-05-27T07:26:38.388Z,1505
2017-05-27T07:27:39.006Z,1500
2017-05-27T07:28:39.640Z,1495
2017-05-27T07:29:40.279Z,1490
2017-05-27T07:30:40.901Z,1505
2017-05-27T07:31:41.526Z,1520
2017-05-27T07:32:42.163Z,1535
2017-05-27T07:33:42.798Z,1525
2017-05-27T07:34:43.422Z,1545
2017-05-27T07:35:44.060Z,1575
2017-05-27T07:36:44.693Z,1605
2017-05-27T07:37:45.331Z,1645
2017-05-27T07:38:45.970Z,1660
2017-05-27T07:39:46.685Z,1655
2017-05-27T07:40:47.231Z,1680
2017-05-27T07:41:47.862Z,1680
2017-05-27T07:42:48.542Z,1700
2017-05-27T07:43:49.173Z,1685
2017-05-27T07:44:49.794Z,1675
2017-05-27T07:45:50.420Z,1720
2017-05-27T07:46:51.042Z,1705
2017-05-27T07:47:51.679Z,1745
2017-05-27T07:48:52.316Z,1665
2017-05-27T07:49:52.957Z,1745
2017-05-27T07:50:53.587Z,1690
2017-05-27T07:51:54.215Z,1705
2017-05-27T07:52:54.850Z,1675
2017-05-27T07:53:55.475Z,1640
2017-05-27T07:54:56.116Z,1660
2017-05-27T07:55:56.754Z,1665
2017-05-27T07:56:57.391Z,1575
2017-05-27T07:57:58.025Z,1600
2017-05-27T07:58:58.654Z,1570
2017-05-27T07:59:59.291Z,1555
2017-05-27T08:00:59.916Z,1560
2017-05-27T08:02:00.551Z,1505
2017-05-27T08:03:01.169Z,1505
2017-05-27T08:04:01.792Z,1475
2017-05-27T08:05:02.433Z,1490
2017-05-27T08:06:03.065Z,1480
2017-05-27T08:07:03.688Z,1480
2017-05-27T08:08:04.379Z,1475
2017-05-27T08:09:05.011Z,1470
2017-05-27T08:10:05.656Z,1450
2017-05-27T08:11:06.296Z,1460
2017-05-27T08:12:06.929Z,1445
2017-05-27T08:13:07.563Z,1445
2017-05-27T08:14:08.185Z,1435
2017-05-27T08:15:08.805Z,1435
2017-05-27T08:16:09.427Z,1435
2017-05-27T08:17:10.059Z,1425
2017-05-27T08:18:10.684Z,1435
2017-05-27T08:19:11.322Z,1430
2017-05-27T08:20:11.938Z,1415
2017-05-27T08:21:12.570Z,1420
2017-05-27T08:22:13.203Z,1415
2017-05-27T08:23:13.837Z,1430
2017-05-27T08:24:14.474Z,1410
2017-05-27T08:25:15.163Z,1425
2017-05-27T08:26:15.790Z,1420
2017-05-27T08:27:16.418Z,1415
2017-05-27T08:28:17.055Z,1425
2017-05-27T08:29:17.674Z,1420
2017-05-27T08:30:18.295Z,1420
2017-05-27T08:31:18.915Z,1415
2017-05-27T08:32:19.547Z,1425
2017-05-27T08:33:20.176Z,1415
2017-05-27T08:34:20.807Z,1420
2017-05-27T08:35:21.435Z,1420
2017-05-27T08:36:22.059Z,1410
2017-05-27T08:37:22.748Z,1415
2017-05-27T08:38:23.368Z,1410
2017-05-27T08:39:24.002Z,1410
2017-05-27T08:40:24.639Z,1420
2017-05-27T08:41:25.272Z,1415
2017-05-27T08:42:25.891Z,1420
2017-05-27T08:43:26.525Z,1415
2017-05-27T08:44:27.144Z,1410
2017-05-27T08:45:27.774Z,1405
2017-05-27T08:46:28.395Z,1405
2017-05-27T08:47:29.018Z,1410
2017-05-27T08:48:29.661Z,1405
2017-05-27T08:49:30.279Z,1410
2017-05-27T08:50:30.916Z,1415
2017-05-27T08:51:31.555Z,1415
2017-05-27T08:52:32.190Z,1415
2017-05-27T08:53:32.808Z,1425
2017-05-27T08:54:33.444Z,1410
2017-05-27T08:55:34.074Z,1415
2017-05-27T08:56:34.707Z,1410
2017-05-27T08:57:35.349Z,1405
2017-05-27T08:58:35.982Z,1415
2017-05-27T08:59:36.614Z,1400
2017-05-27T09:00:37.240Z,1400
2017-05-27T09:01:37.877Z,1415
2017-05-27T09:02:38.557Z,1410
2017-05-27T09:03:39.152Z,1405
2017-05-27T09:04:39.786Z,1410
2017-05-27T09:05:40.418Z,1400
2017-05-27T09:06:41.046Z,1405
2017-05-27T09:07:41.715Z,1405
2017-05-27T09:08:42.348Z,1400
2017-05-27T09:09:42.977Z,1400
2017-05-27T09:10:43.606Z,1405
2017-05-27T09:11:44.240Z,1400
2017-05-27T09:12:44.859Z,1395
2017-05-27T09:13:45.495Z,1395
2017-05-27T09:14:46.120Z,1395
2017-05-27T09:15:46.758Z,1410
2017-05-27T09:16:47.398Z,1400
2017-05-27T09:17:48.082Z,1415
2017-05-27T09:18:48.707Z,1400
2017-05-27T09:19:49.338Z,1395
2017-05-27T09:20:49.967Z,1415
2017-05-27T09:21:50.585Z,1405
2017-05-27T09:22:51.208Z,1405
2017-05-27T09:23:51.841Z,1410
2017-05-27T09:24:52.466Z,1405
2017-05-27T09:25:53.104Z,1410
2017-05-27T09:26:53.778Z,1415
2017-05-27T09:27:54.400Z,1410
2017-05-27T09:28:55.029Z,1410
2017-05-27T09:29:55.652Z,1420
2017-05-27T09:30:56.272Z,1420
2017-05-27T09:31:56.959Z,1410
2017-05-27T09:32:57.595Z,1415
2017-05-27T09:33:58.227Z,1415
2017-05-27T09:34:58.861Z,1415
2017-05-27T09:35:59.500Z,1425
2017-05-27T09:37:00.179Z,1420
2017-05-27T09:38:00.818Z,1420
2017-05-27T09:39:01.458Z,1430
2017-05-27T09:40:02.100Z,1420
2017-05-27T09:41:02.736Z,1430
2017-05-27T09:42:03.359Z,1425
2017-05-27T09:43:03.999Z,1425
2017-05-27T09:44:04.629Z,1425
2017-05-27T09:45:05.256Z,1430
2017-05-27T09:46:05.890Z,1445
2017-05-27T09:47:06.525Z,1435
2017-05-27T09:48:07.159Z,1435
2017-05-27T09:49:07.783Z,1435
2017-05-27T09:50:08.410Z,1435
2017-05-27T09:51:09.043Z,1440
2017-05-27T09:52:09.669Z,1440
2017-05-27T09:53:10.306Z,1440
2017-05-27T09:54:10.932Z,1445
2017-05-27T09:55:11.568Z,1435
2017-05-27T09:56:12.194Z,1435
2017-05-27T09:57:12.829Z,1445
2017-05-27T09:58:13.461Z,1440
2017-05-27T09:59:14.085Z,1440
2017-05-27T10:00:14.720Z,1445
2017-05-27T10:01:15.408Z,1440
2017-05-27T10:02:16.033Z,1445
2017-05-27T10:03:16.658Z,1440
2017-05-27T10:04:17.277Z,1445
2017-05-27T10:05:17.898Z,1440
2017-05-27T10:06:18.532Z,1445
2017-05-27T10:07:19.184Z,1445
2017-05-27T10:08:19.804Z,1440
2017-05-27T10:09:20.438Z,1440
2017-05-27T10:10:21.073Z,1440
2017-05-27T10:11:21.707Z,1440
2017-05-27T10:12:22.339Z,1440
2017-05-27T10:13:22.966Z,1440
2017-05-27T10:14:23.587Z,1440
2017-05-27T10:15:24.210Z,1435
2017-05-27T10:16:24.842Z,1435
2017-05-27T10:17:25.467Z,1445
2017-05-27T10:18:26.091Z,1435
2017-05-27T10:19:26.727Z,1430
2017-05-27T10:20:27.346Z,1440
2017-05-27T10:21:27.980Z,1435
2017-05-27T10:22:28.616Z,1435
2017-05-27T10:23:29.235Z,1435
2017-05-27T10:24:29.908Z,1435
2017-05-27T10:25:30.529Z,1440
2017-05-27T10:26:31.152Z,1440
2017-05-27T10:27:31.776Z,1440
2017-05-27T10:28:32.410Z,1435
2017-05-27T10:29:33.094Z,1440
2017-05-27T10:30:33.730Z,1440
2017-05-27T10:31:34.353Z,1435
2017-05-27T10:32:34.990Z,1430
2017-05-27T10:33:35.627Z,1440
2017-05-27T10:34:36.265Z,1450
2017-05-27T10:35:36.905Z,1445
2017-05-27T10:36:37.525Z,1440
2017-05-27T10:37:38.159Z,1430
2017-05-27T10:38:38.833Z,1435
2017-05-27T10:39:39.471Z,1440
2017-05-27T10:40:40.093Z,1435
2017-05-27T10:41:40.718Z,1445
2017-05-27T10:42:41.337Z,1435
2017-05-27T10:43:42.012Z,1435
2017-05-27T10:44:42.631Z,1445
2017-05-27T10:45:43.259Z,1445
2017-05-27T10:46:43.882Z,1440
2017-05-27T10:47:44.511Z,1440
2017-05-27T10:48:45.185Z,1445
2017-05-27T10:49:45.822Z,1440
2017-05-27T10:50:46.461Z,1445
2017-05-27T10:51:47.083Z,1445
2017-05-27T10:52:47.718Z,1445
2017-05-27T10:53:48.390Z,1445
2017-05-27T10:54:49.014Z,1455
2017-05-27T10:55:49.650Z,1445
2017-05-27T10:56:50.284Z,1440
2017-05-27T10:57:50.906Z,1445
2017-05-27T10:58:51.540Z,1450
2017-05-27T10:59:52.226Z,1440
2017-05-27T11:00:52.851Z,1445
2017-05-27T11:01:53.487Z,1435
2017-05-27T11:02:54.121Z,1440
2017-05-27T11:03:54.753Z,1445
2017-05-27T11:04:55.388Z,1450
2017-05-27T11:05:56.029Z,1445
2017-05-27T11:06:56.665Z,1445
2017-05-27T11:07:57.299Z,1440
2017-05-27T11:08:57.933Z,1440
2017-05-27T11:09:58.568Z,1440
2017-05-27T11:10:59.195Z,1440
2017-05-27T11:11:59.811Z,1435
2017-05-27T11:13:00.445Z,1445
2017-05-27T11:14:01.081Z,1440
2017-05-27T11:15:01.714Z,1430
2017-05-27T11:16:02.353Z,1435
2017-05-27T11:17:02.975Z,1430
2017-05-27T11:18:03.626Z,1430
2017-05-27T11:19:04.230Z,1430
2017-05-27T11:20:04.865Z,1440
2017-05-27T11:21:05.500Z,1435
2017-05-27T11:22:06.134Z,1430
2017-05-27T11:23:06.758Z,1430
2017-05-27T11:24:07.434Z,1420
2017-05-27T11:25:08.067Z,1420
2017-05-27T11:26:08.692Z,1420
2017-05-27T11:27:09.313Z,1425
2017-05-27T11:28:09.942Z,1415
2017-05-27T11:29:10.566Z,1420
2017-05-27T11:30:11.188Z,1415
2017-05-27T11:31:11.808Z,1415
2017-05-27T11:32:12.428Z,1415
2017-05-27T11:33:13.063Z,1420
2017-05-27T11:34:13.706Z,1410
2017-05-27T11:35:14.321Z,1420
2017-05-27T11:36:14.953Z,1415
2017-05-27T11:37:15.588Z,1405
2017-05-27T11:38:16.225Z,1410
2017-05-27T11:39:16.850Z,1415
2017-05-27T11:40:17.469Z,1405
2017-05-27T11:41:18.094Z,1400
2017-05-27T11:42:18.732Z,1400
2017-05-27T11:43:19.376Z,1400
2017-05-27T11:44:20.008Z,1395
2017-05-27T11:45:20.646Z,1390
2017-05-27T11:46:21.294Z,1395
2017-05-27T11:47:21.919Z,1400
2017-05-27T11:48:22.540Z,1390
2017-05-27T11:49:23.170Z,1395
2017-05-27T11:50:23.809Z,1385
2017-05-27T11:51:24.443Z,1385
2017-05-27T11:52:25.080Z,1385
2017-05-27T11:53:25.718Z,1380
2017-05-27T11:54:26.341Z,1385
2017-05-27T11:55:26.974Z,1380
2017-05-27T11:56:27.610Z,1385
2017-05-27T11:57:28.299Z,1365
2017-05-27T11:58:28.920Z,1365
2017-05-27T11:59:29.556Z,1370
2017-05-27T12:00:30.190Z,1375
2017-05-27T12:01:30.830Z,1365
2017-05-27T12:02:31.435Z,1360
2017-05-27T12:03:32.056Z,1360
2017-05-27T12:04:32.694Z,1350
2017-05-27T12:05:33.333Z,1355
2017-05-27T12:06:33.974Z,1350
2017-05-27T12:07:34.608Z,1345
2017-05-27T12:08:35.291Z,1345
2017-05-27T12:09:35.925Z,1340
2017-05-27T12:10:36.559Z,1340
2017-05-27T12:11:37.183Z,1335
2017-05-27T12:12:37.821Z,1345
2017-05-27T12:13:38.460Z,1335
2017-05-27T12:14:39.101Z,1335
2017-05-27T12:15:39.755Z,1330
2017-05-27T12:16:40.414Z,1325
2017-05-27T12:17:41.039Z,1320
2017-05-27T12:18:41.670Z,1320
2017-05-27T12:19:42.361Z,1315
2017-05-27T12:20:43.003Z,1325
2017-05-27T12:21:43.636Z,1310
2017-05-27T12:22:44.268Z,1305
2017-05-27T12:23:44.897Z,1305
2017-05-27T12:24:45.572Z,1300
2017-05-27T12:25:46.216Z,1295
2017-05-27T12:26:46.851Z,1295
2017-05-27T12:27:47.488Z,1290
2017-05-27T12:28:48.108Z,1295
2017-05-27T12:29:48.739Z,1300
2017-05-27T12:30:49.374Z,1285
2017-05-27T12:31:50.012Z,1280
2017-05-27T12:32:50.648Z,1280
2017-05-27T12:33:51.281Z,1280
2017-05-27T12:34:51.953Z,1270
2017-05-27T12:35:52.584Z,1265
2017-05-27T12:36:53.202Z,1265
2017-05-27T12:37:53.827Z,1260
2017-05-27T12:38:54.454Z,1260
2017-05-27T12:39:55.089Z,1255
2017-05-27T12:40:55.710Z,1260
2017-05-27T12:41:56.343Z,1250
2017-05-27T12:42:57.022Z,1250
2017-05-27T12:43:57.653Z,1245
2017-05-27T12:44:58.291Z,1240
2017-05-27T12:45:58.925Z,1235
2017-05-27T12:46:59.566Z,1230
2017-05-27T12:48:00.184Z,1230
2017-05-27T12:49:00.818Z,1225
2017-05-27T12:50:01.457Z,1220
2017-05-27T12:51:02.081Z,1215
2017-05-27T12:52:02.725Z,1220
2017-05-27T12:53:03.358Z,1205
2017-05-27T12:54:03.969Z,1205
2017-05-27T12:55:04.590Z,1200
2017-05-27T12:56:05.223Z,1200
2017-05-27T12:57:05.862Z,1195
2017-05-27T12:58:06.496Z,1185
2017-05-27T12:59:07.139Z,1185
2017-05-27T13:00:07.751Z,1185
2017-05-27T13:01:08.369Z,1175
2017-05-27T13:02:08.992Z,1170
2017-05-27T13:03:09.629Z,1165
2017-05-27T13:04:10.266Z,1165
2017-05-27T13:05:10.905Z,1170
2017-05-27T13:06:11.589Z,1165
2017-05-27T13:07:12.233Z,1150
2017-05-27T13:08:12.866Z,1145
2017-05-27T13:09:13.486Z,1145
2017-05-27T13:10:14.120Z,1140
2017-05-27T13:11:14.744Z,1140
2017-05-27T13:12:15.368Z,1130
2017-05-27T13:13:15.988Z,1135
2017-05-27T13:14:16.613Z,1125
2017-05-27T13:15:17.245Z,1120
2017-05-27T13:16:17.928Z,1125
2017-05-27T13:17:18.557Z,1125
2017-05-27T13:18:19.187Z,1125
2017-05-27T13:19:19.821Z,1110
2017-05-27T13:20:20.464Z,1110
2017-05-27T13:21:21.099Z,1105
2017-05-27T13:22:21.719Z,1110
2017-05-27T13:23:22.351Z,1100
2017-05-27T13:24:22.982Z,1100
2017-05-27T13:25:23.602Z,1095
2017-05-27T13:26:24.236Z,1085
2017-05-27T13:27:24.873Z,1080
2017-05-27T13:28:25.508Z,1075
2017-05-27T13:29:26.147Z,1065
2017-05-27T13:30:26.783Z,1045
2017-05-27T13:31:27.417Z,1025
2017-05-27T13:32:28.036Z,1000
2017-05-27T13:33:28.657Z,975
2017-05-27T13:34:29.285Z,945
2017-05-27T13:35:29.906Z,925
2017-05-27T13:36:30.544Z,885
2017-05-27T13:37:31.164Z,845
2017-05-27T13:38:31.834Z,815
2017-05-27T13:39:32.467Z,775
2017-05-27T13:40:33.098Z,745
2017-05-27T13:41:33.736Z,715
2017-05-27T13:42:34.369Z,690
2017-05-27T13:43:34.999Z,670
2017-05-27T13:44:35.629Z,625
2017-05-27T13:45:36.252Z,600
2017-05-27T13:46:36.884Z,595
2017-05-27T13:47:37.504Z,585
2017-05-27T13:48:38.184Z,580
2017-05-27T13:49:38.816Z,580
2017-05-27T13:50:39.438Z,610
2017-05-27T13:51:40.066Z,635
2017-05-27T13:52:40.687Z,585
2017-05-27T13:53:41.322Z,685
2017-05-27T13:54:41.952Z,715
2017-05-27T13:55:42.579Z,820